Red Mountain, California
Current Conditions -  °F | °C
As of 4:56 PM on Thursday 18 Dec 2014 (Local Time) from KNID Reporting Station
Overcast Overcast  
Wind Chill: 50°   Ceiling: 5000
Heat Index: 50°   Visibility: 10mi
Dew Point: 38°   Wind: 0mph
Humidity: 63%   Direction: NA
Pressure: 30.17"   Gusts: NA
Location:  35.36°N, 117.62°W
Report Text: KNID 190056Z 00000KT 10SM OVC050 10/03 A3017 RMK AO2 SLP227 T01000033 $
Loading
Personal Weather Stations






























Interactive Weather Map New forecast layout! Learn more

10-Day Weather Forecast

Advertisements
Track Severe Weather on mobile